Decoded Metar for EPBY (BYDGOSZCZ in POLAND) (IATA:N/A) | Meteo·Mobile Aviation Weather
aviador You're here:

EPBY Decoded Metar

BYDGOSZCZ in POLAND
Report Time2019-07-19 19:00:00
UTC Time2019-07-19 19:21:48
Flight Rules vfr VFR
Wind220° at 04 kt
W.Decomp.*RWY 26: 2.8 kt HW 2.8 kt LCW
Visibility9999 m
Phenomena:N/A
Clouds:N/A
Expected CloudBase > 4,800 ft AGL from Temp-Dew spread
CeilingNone
Temp23°C (ISA +8)
Dew Point11°C (47% RH)
AAT21.9°C
QNH1012 hPa
Density Alt1,427 ft
Elevation233 ft
Report Wrong Elevation
Raw Report
METAR EPBY 191900Z 22004KT CAVOK 23/11 Q1012 =

Extra information for EPBY:More info

Metar Taf Metar & Taf Last 4 Metars F.Rules Stats Wind Profile Meteogram Temp Stats Airport Information Weather charts Add Link Nearby VenuesMetar ALERT Operation Metar Decoded Social comments